Time;durP1;ratioP1;P1;durP2;ratioP2;P2;SDS_P1;SDS_P2;PMS_P1;PMS_P2;Temp;Humidity;BMP_temperature;BMP_pressure;BME280_temperature;BME280_humidity;BME280_pressure;Samples;Min_cycle;Max_cycle;Signal;HPM_P1;HPM_P2
2021/10/06 00:00:10;;;;;;;;;;;;;;;;;;4970851;28;19990;-81
2021/10/06 00:02:36;;;;;;;;;;;;;;;;;;4978268;28;19918;-80
2021/10/06 00:05:01;;;;;;;;;;;;;;;;;;4978310;28;20016;-81
2021/10/06 00:07:26;;;;;;;;;;;;;;;;;;4978298;28;20357;-81
2021/10/06 00:09:52;;;;;;;;;;;;;;;;;;4961788;28;20012;-81
2021/10/06 00:12:17;;;;;;;;;;;;;;;;;;4977825;28;19929;-81
2021/10/06 00:14:42;;;;;;;;;;;;;;;;;;4961498;28;19925;-81
2021/10/06 00:17:08;;;;;;;;;;;;;;;;;;4978142;28;19918;-81
2021/10/06 00:19:33;;;;;;;;;;;;;;;;;;4961120;28;20320;-81
2021/10/06 00:21:58;;;;;;;;;;;;;;;;;;4977999;28;19936;-81
2021/10/06 00:24:24;;;;;;;;;;;;;;;;;;4977767;28;19917;-81
2021/10/06 00:26:49;;;;;;;;;;;;;;;;;;4977854;28;20272;-82
2021/10/06 00:29:15;;;;;;;;;;;;;;;;;;4994008;28;19922;-81
2021/10/06 00:31:40;;;;;;;;;;;;;;;;;;4961724;28;19914;-81
2021/10/06 00:34:05;;;;;;;;;;;;;;;;;;4994229;28;19968;-81
2021/10/06 00:36:31;;;;;;;;;;;;;;;;;;4961212;28;19918;-80
2021/10/06 00:38:56;;;;;;;;;;;;;;;;;;4977499;28;19924;-81
2021/10/06 00:41:21;;;;;;;;;;;;;;;;;;4993808;28;19922;-81
2021/10/06 00:43:47;;;;;;;;;;;;;;;;;;4977110;28;20007;-81
2021/10/06 00:46:12;;;;;;;;;;;;;;;;;;4961192;28;19928;-81
2021/10/06 00:48:37;;;;;;;;;;;;;;;;;;4961169;28;19914;-81
2021/10/06 00:51:03;;;;;;;;;;;;;;;;;;4960433;28;19960;-81
2021/10/06 00:53:28;;;;;;;;;;;;;;;;;;4977035;28;19929;-81
2021/10/06 00:55:54;;;;;;;;;;;;;;;;;;4977323;28;19972;-81
2021/10/06 00:58:19;;;;;;;;;;;;;;;;;;4976733;28;19922;-81
2021/10/06 01:00:45;;;;;;;;;;;;;;;;;;4975139;28;19925;-80
2021/10/06 01:03:10;;;;;;;;;;;;;;;;;;4987670;28;20382;-81
2021/10/06 01:05:37;;;;;;;;;;;;;;;;;;4960958;28;19921;-81
2021/10/06 01:08:02;;;;;;;;;;;;;;;;;;4977288;28;20021;-81
2021/10/06 01:10:27;;;;;;;;;;;;;;;;;;4976933;28;19997;-82
2021/10/06 01:12:53;;;;;;;;;;;;;;;;;;4976636;28;20284;-81
2021/10/06 01:15:18;;;;;;;;;;;;;;;;;;4960914;28;19921;-81
2021/10/06 01:17:43;;;;;;;;;;;;;;;;;;4992849;28;20358;-80
2021/10/06 01:20:09;;;;;;;;;;;;;;;;;;4993159;28;19917;-81
2021/10/06 01:22:34;;;;;;;;;;;;;;;;;;4976465;28;19922;-80
2021/10/06 01:25:01;;;;;;;;;;;;;;;;;;4976791;28;20253;-81
2021/10/06 01:27:26;;;;;;;;;;;;;;;;;;4960821;28;19914;-81
2021/10/06 01:29:51;;;;;;;;;;;;;;;;;;4976416;28;19926;-81
2021/10/06 01:32:17;;;;;;;;;;;;;;;;;;4992457;28;20288;-80
2021/10/06 01:34:42;;;;;;;;;;;;;;;;;;4992513;28;19926;-80
2021/10/06 01:37:08;;;;;;;;;;;;;;;;;;4977016;28;20016;-80
2021/10/06 01:39:33;;;;;;;;;;;;;;;;;;4976529;28;19922;-80
2021/10/06 01:41:58;;;;;;;;;;;;;;;;;;4976163;28;19921;-81
2021/10/06 01:44:24;;;;;;;;;;;;;;;;;;4975351;28;20320;-81
2021/10/06 01:46:50;;;;;;;;;;;;;;;;;;4976931;28;19914;-81
2021/10/06 01:49:15;;;;;;;;;;;;;;;;;;4960209;28;20041;-81
2021/10/06 01:51:40;;;;;;;;;;;;;;;;;;4975907;28;20411;-81
2021/10/06 01:54:06;;;;;;;;;;;;;;;;;;4976110;28;20398;-81
2021/10/06 01:56:32;;;;;;;;;;;;;;;;;;4975929;28;19913;-81
2021/10/06 01:58:57;;;;;;;;;;;;;;;;;;4972842;28;19934;-80
2021/10/06 02:01:23;;;;;;;;;;;;;;;;;;4973646;28;19918;-80
2021/10/06 02:03:48;;;;;;;;;;;;;;;;;;4976081;28;19921;-81
2021/10/06 02:06:14;;;;;;;;;;;;;;;;;;4992276;28;19927;-81
2021/10/06 02:08:39;;;;;;;;;;;;;;;;;;4975610;28;19941;-81
2021/10/06 02:11:04;;;;;;;;;;;;;;;;;;4975978;28;19921;-81
2021/10/06 02:13:30;;;;;;;;;;;;;;;;;;4975787;28;19917;-81
2021/10/06 02:15:55;;;;;;;;;;;;;;;;;;4976333;28;20253;-81
2021/10/06 02:18:20;;;;;;;;;;;;;;;;;;4975658;28;19957;-81
2021/10/06 02:20:46;;;;;;;;;;;;;;;;;;4975568;28;20371;-81
2021/10/06 02:23:12;;;;;;;;;;;;;;;;;;4975218;28;19924;-81
2021/10/06 02:25:38;;;;;;;;;;;;;;;;;;4960117;28;20004;-80
2021/10/06 02:28:03;;;;;;;;;;;;;;;;;;4991505;28;20432;-80
2021/10/06 02:30:28;;;;;;;;;;;;;;;;;;4959692;28;19961;-81
2021/10/06 02:32:54;;;;;;;;;;;;;;;;;;4975143;28;19914;-80
2021/10/06 02:35:19;;;;;;;;;;;;;;;;;;4975647;28;19964;-81
2021/10/06 02:37:44;;;;;;;;;;;;;;;;;;4991414;28;20028;-81
2021/10/06 02:40:11;;;;;;;;;;;;;;;;;;4991646;28;19962;-80
2021/10/06 02:42:36;;;;;;;;;;;;;;;;;;4974284;28;19928;-80
2021/10/06 02:45:02;;;;;;;;;;;;;;;;;;4975416;28;19922;-81
2021/10/06 02:47:27;;;;;;;;;;;;;;;;;;4959009;28;19929;-81
2021/10/06 02:49:53;;;;;;;;;;;;;;;;;;4975501;28;20403;-81
2021/10/06 02:52:18;;;;;;;;;;;;;;;;;;4974643;28;19921;-81
2021/10/06 02:54:43;;;;;;;;;;;;;;;;;;4958972;28;19914;-81
2021/10/06 02:57:09;;;;;;;;;;;;;;;;;;4959502;28;19918;-80
2021/10/06 02:59:34;;;;;;;;;;;;;;;;;;4969202;28;20422;-80
2021/10/06 03:02:00;;;;;;;;;;;;;;;;;;4989046;28;20049;-81
2021/10/06 03:04:25;;;;;;;;;;;;;;;;;;4990819;28;19961;-81
2021/10/06 03:06:50;;;;;;;;;;;;;;;;;;4979226;28;19918;-81
2021/10/06 03:09:17;;;;;;;;;;;;;;;;;;4991092;28;20297;-81
2021/10/06 03:11:42;;;;;;;;;;;;;;;;;;4958918;28;19924;-81
2021/10/06 03:14:07;;;;;;;;;;;;;;;;;;4974969;28;19922;-81
2021/10/06 03:16:32;;;;;;;;;;;;;;;;;;4974859;28;20428;-81
2021/10/06 03:18:58;;;;;;;;;;;;;;;;;;4975405;28;20567;-80
2021/10/06 03:21:23;;;;;;;;;;;;;;;;;;4990685;28;19956;-80
2021/10/06 03:23:49;;;;;;;;;;;;;;;;;;4974756;28;20291;-81
2021/10/06 03:26:14;;;;;;;;;;;;;;;;;;4958650;28;19918;-80
2021/10/06 03:28:39;;;;;;;;;;;;;;;;;;4974188;28;19929;-80
2021/10/06 03:31:05;;;;;;;;;;;;;;;;;;4991233;28;19976;-80
2021/10/06 03:33:30;;;;;;;;;;;;;;;;;;4974600;28;19968;-80
2021/10/06 03:35:55;;;;;;;;;;;;;;;;;;4990388;28;19921;-81
2021/10/06 03:38:21;;;;;;;;;;;;;;;;;;4958383;28;19914;-81
2021/10/06 03:40:46;;;;;;;;;;;;;;;;;;4975368;28;19964;-80
2021/10/06 03:43:11;;;;;;;;;;;;;;;;;;4991038;28;20360;-80
2021/10/06 03:45:37;;;;;;;;;;;;;;;;;;4958746;28;19984;-80
2021/10/06 03:48:02;;;;;;;;;;;;;;;;;;4974554;28;19921;-80
2021/10/06 03:50:27;;;;;;;;;;;;;;;;;;4958402;28;19918;-80
2021/10/06 03:52:53;;;;;;;;;;;;;;;;;;4974578;28;19925;-80
2021/10/06 03:55:18;;;;;;;;;;;;;;;;;;4962179;28;20016;-80
2021/10/06 03:57:43;;;;;;;;;;;;;;;;;;4978319;28;19914;-80
2021/10/06 04:00:09;;;;;;;;;;;;;;;;;;4961962;28;19925;-80
2021/10/06 04:02:34;;;;;;;;;;;;;;;;;;4994725;28;20519;-80
2021/10/06 04:05:00;;;;;;;;;;;;;;;;;;4961536;28;19924;-80
2021/10/06 04:07:25;;;;;;;;;;;;;;;;;;4978478;28;19999;-80
2021/10/06 04:09:50;;;;;;;;;;;;;;;;;;4978002;28;19918;-80
2021/10/06 04:12:16;;;;;;;;;;;;;;;;;;4993985;28;19924;-80
2021/10/06 04:14:41;;;;;;;;;;;;;;;;;;4978229;28;20339;-80
2021/10/06 04:17:06;;;;;;;;;;;;;;;;;;4977844;28;19928;-80
2021/10/06 04:19:32;;;;;;;;;;;;;;;;;;4994069;28;19928;-80
2021/10/06 04:21:57;;;;;;;;;;;;;;;;;;4978388;28;20008;-80
2021/10/06 04:24:22;;;;;;;;;;;;;;;;;;4977560;28;19933;-81
2021/10/06 04:26:47;;;;;;;;;;;;;;;;;;4977501;28;19925;-80
2021/10/06 04:29:13;;;;;;;;;;;;;;;;;;4994396;28;19928;-80
2021/10/06 04:31:38;;;;;;;;;;;;;;;;;;4978089;28;19918;-80
2021/10/06 04:34:04;;;;;;;;;;;;;;;;;;4961185;28;19918;-80
2021/10/06 04:36:29;;;;;;;;;;;;;;;;;;4961562;28;19921;-82
2021/10/06 04:38:54;;;;;;;;;;;;;;;;;;4961250;28;19918;-82
2021/10/06 04:41:20;;;;;;;;;;;;;;;;;;4977315;28;19922;-81
2021/10/06 04:43:45;;;;;;;;;;;;;;;;;;4977805;28;19914;-81
2021/10/06 04:46:10;;;;;;;;;;;;;;;;;;4960424;28;19964;-82
2021/10/06 04:48:35;;;;;;;;;;;;;;;;;;4976587;28;19918;-82
2021/10/06 04:51:01;;;;;;;;;;;;;;;;;;4977938;28;19929;-82
2021/10/06 04:53:26;;;;;;;;;;;;;;;;;;4977404;28;19985;-82
2021/10/06 04:55:52;;;;;;;;;;;;;;;;;;4976184;28;19926;-82
2021/10/06 04:58:17;;;;;;;;;;;;;;;;;;4960758;28;20334;-83
2021/10/06 05:00:42;;;;;;;;;;;;;;;;;;4996623;28;19918;-83
2021/10/06 05:03:11;;;;;;;;;;;;;;;;;;4992848;28;20388;-83
2021/10/06 05:05:37;;;;;;;;;;;;;;;;;;4993342;28;19913;-83
2021/10/06 05:08:03;;;;;;;;;;;;;;;;;;4982997;28;20289;-82
2021/10/06 05:10:28;;;;;;;;;;;;;;;;;;4974348;28;20329;-82
2021/10/06 05:12:54;;;;;;;;;;;;;;;;;;4957283;28;20009;-83
2021/10/06 05:15:19;;;;;;;;;;;;;;;;;;4966133;28;19921;-84
2021/10/06 05:17:44;;;;;;;;;;;;;;;;;;4991102;28;19996;-84
2021/10/06 05:20:10;;;;;;;;;;;;;;;;;;4982078;28;20012;-83
2021/10/06 05:22:35;;;;;;;;;;;;;;;;;;4992471;28;19920;-81
2021/10/06 05:25:00;;;;;;;;;;;;;;;;;;5007694;28;20368;-81
2021/10/06 05:27:26;;;;;;;;;;;;;;;;;;4969033;28;19972;-81
2021/10/06 05:29:51;;;;;;;;;;;;;;;;;;4975241;28;20132;-81
2021/10/06 05:32:17;;;;;;;;;;;;;;;;;;4974257;28;19921;-82
2021/10/06 05:34:42;;;;;;;;;;;;;;;;;;4976354;28;19918;-81
2021/10/06 05:37:07;;;;;;;;;;;;;;;;;;4976976;28;20008;-82
2021/10/06 05:39:33;;;;;;;;;;;;;;;;;;4975994;28;19969;-82
2021/10/06 05:41:58;;;;;;;;;;;;;;;;;;4960178;28;19917;-82
2021/10/06 05:44:23;;;;;;;;;;;;;;;;;;5008445;28;20004;-82
2021/10/06 05:46:48;;;;;;;;;;;;;;;;;;4960282;28;19925;-83
2021/10/06 05:49:14;;;;;;;;;;;;;;;;;;4985366;28;20287;-82
2021/10/06 05:51:39;;;;;;;;;;;;;;;;;;4957337;28;19925;-82
2021/10/06 05:54:05;;;;;;;;;;;;;;;;;;4959783;28;19926;-85
2021/10/06 05:56:30;;;;;;;;;;;;;;;;;;4958999;28;19917;-84
2021/10/06 05:58:55;;;;;;;;;;;;;;;;;;4975859;28;19928;-83
2021/10/06 06:01:20;;;;;;;;;;;;;;;;;;4959658;28;19952;-84
2021/10/06 06:03:46;;;;;;;;;;;;;;;;;;4975806;28;19917;-81
2021/10/06 06:06:11;;;;;;;;;;;;;;;;;;4961378;28;20036;-82
2021/10/06 06:08:37;;;;;;;;;;;;;;;;;;4975101;28;19922;-82
2021/10/06 06:11:02;;;;;;;;;;;;;;;;;;4975725;28;19921;-82
2021/10/06 06:13:28;;;;;;;;;;;;;;;;;;4958625;28;20352;-81
2021/10/06 06:15:53;;;;;;;;;;;;;;;;;;4958921;28;20376;-81
2021/10/06 06:18:19;;;;;;;;;;;;;;;;;;4959547;28;20008;-82
2021/10/06 06:20:44;;;;;;;;;;;;;;;;;;4986172;28;19917;-82
2021/10/06 06:23:10;;;;;;;;;;;;;;;;;;4993385;28;19921;-82
2021/10/06 06:25:35;;;;;;;;;;;;;;;;;;5001079;28;19918;-81
2021/10/06 06:28:00;;;;;;;;;;;;;;;;;;4998041;28;19925;-82
2021/10/06 06:30:25;;;;;;;;;;;;;;;;;;4940309;28;20284;-81
2021/10/06 06:32:52;;;;;;;;;;;;;;;;;;4971832;28;19913;-81
2021/10/06 06:35:17;;;;;;;;;;;;;;;;;;4975864;28;19924;-82
2021/10/06 06:37:42;;;;;;;;;;;;;;;;;;4975803;28;19914;-82
2021/10/06 06:40:08;;;;;;;;;;;;;;;;;;4974141;28;19921;-82
2021/10/06 06:42:33;;;;;;;;;;;;;;;;;;4974986;28;19922;-83
2021/10/06 06:44:59;;;;;;;;;;;;;;;;;;4975418;28;19917;-83
2021/10/06 06:47:25;;;;;;;;;;;;;;;;;;4954116;28;20005;-82
2021/10/06 06:49:50;;;;;;;;;;;;;;;;;;4970763;28;19917;-82
2021/10/06 06:52:15;;;;;;;;;;;;;;;;;;4962103;28;19964;-82
2021/10/06 06:54:41;;;;;;;;;;;;;;;;;;4975028;28;19918;-82
2021/10/06 06:57:06;;;;;;;;;;;;;;;;;;4974358;28;19914;-85
2021/10/06 06:59:32;;;;;;;;;;;;;;;;;;4975583;28;19922;-84
2021/10/06 07:01:58;;;;;;;;;;;;;;;;;;4991774;28;20291;-85
2021/10/06 07:04:24;;;;;;;;;;;;;;;;;;4959128;28;19945;-85
2021/10/06 07:06:52;;;;;;;;;;;;;;;;;;4957851;28;19964;-84
2021/10/06 07:09:22;;;;;;;;;;;;;;;;;;4959422;28;19917;-85
2021/10/06 07:11:48;;;;;;;;;;;;;;;;;;4975669;28;19918;-85
2021/10/06 07:14:13;;;;;;;;;;;;;;;;;;4958603;28;19929;-85
2021/10/06 07:16:39;;;;;;;;;;;;;;;;;;4974918;28;20421;-85
2021/10/06 07:19:04;;;;;;;;;;;;;;;;;;4957915;28;19925;-85
2021/10/06 07:21:29;;;;;;;;;;;;;;;;;;4975339;28;19925;-85
2021/10/06 07:23:55;;;;;;;;;;;;;;;;;;4959264;28;19967;-85
2021/10/06 07:26:20;;;;;;;;;;;;;;;;;;4974735;28;20368;-85
2021/10/06 07:28:45;;;;;;;;;;;;;;;;;;4962017;28;19929;-85
2021/10/06 07:31:11;;;;;;;;;;;;;;;;;;4962787;28;19917;-85
2021/10/06 07:33:36;;;;;;;;;;;;;;;;;;4978887;28;20383;-85
2021/10/06 07:36:02;;;;;;;;;;;;;;;;;;4962945;28;20403;-85
2021/10/06 07:38:27;;;;;;;;;;;;;;;;;;4962549;28;19992;-85
2021/10/06 07:40:52;;;;;;;;;;;;;;;;;;4962629;28;19922;-85
2021/10/06 07:43:17;;;;;;;;;;;;;;;;;;4978470;28;19913;-85
2021/10/06 07:45:44;;;;;;;;;;;;;;;;;;4962848;28;19918;-85
2021/10/06 07:48:09;;;;;;;;;;;;;;;;;;4962909;28;19917;-86
2021/10/06 07:50:34;;;;;;;;;;;;;;;;;;4959399;28;20385;-86
2021/10/06 07:52:59;;;;;;;;;;;;;;;;;;4975397;28;19921;-86
2021/10/06 07:55:25;;;;;;;;;;;;;;;;;;4987011;28;19925;-84
2021/10/06 07:57:50;;;;;;;;;;;;;;;;;;4977472;28;19965;-85
2021/10/06 08:00:15;;;;;;;;;;;;;;;;;;4962815;28;19925;-85
2021/10/06 08:02:41;;;;;;;;;;;;;;;;;;4978014;28;19976;-85
2021/10/06 08:05:07;;;;;;;;;;;;;;;;;;4962235;28;19961;-86
2021/10/06 08:07:34;;;;;;;;;;;;;;;;;;5002566;28;20316;-85
2021/10/06 08:09:59;;;;;;;;;;;;;;;;;;5002628;28;20339;-85
2021/10/06 08:12:24;;;;;;;;;;;;;;;;;;4961549;28;20360;-85
2021/10/06 08:14:50;;;;;;;;;;;;;;;;;;4962318;28;19914;-85
2021/10/06 08:17:15;;;;;;;;;;;;;;;;;;4967717;28;19918;-83
2021/10/06 08:19:41;;;;;;;;;;;;;;;;;;4978154;28;19918;-81
2021/10/06 08:22:06;;;;;;;;;;;;;;;;;;4961949;28;19960;-79
2021/10/06 08:24:31;;;;;;;;;;;;;;;;;;4993727;28;19975;-79
2021/10/06 08:26:56;;;;;;;;;;;;;;;;;;4993248;28;20506;-79
2021/10/06 08:29:22;;;;;;;;;;;;;;;;;;4976973;28;19929;-79
2021/10/06 08:31:47;;;;;;;;;;;;;;;;;;4977915;28;19981;-84
2021/10/06 08:34:12;;;;;;;;;;;;;;;;;;4962381;28;20005;-87
2021/10/06 08:36:38;;;;;;;;;;;;;;;;;;4978618;28;20288;-88
2021/10/06 08:39:03;;;;;;;;;;;;;;;;;;4961181;28;19918;-90
2021/10/06 08:41:32;;;;;;;;;;;;;;;;;;4973619;28;20449;-87
2021/10/06 08:43:58;;;;;;;;;;;;;;;;;;4962001;28;19917;-86
2021/10/06 08:46:23;;;;;;;;;;;;;;;;;;4961363;28;20364;-88
2021/10/06 08:48:59;;;;;;;;;;;;;;;;;;4960180;28;19933;-85
2021/10/06 08:51:25;;;;;;;;;;;;;;;;;;5005513;28;19925;-86
2021/10/06 08:53:50;;;;;;;;;;;;;;;;;;5007255;28;19918;-86
2021/10/06 08:56:16;;;;;;;;;;;;;;;;;;5005582;28;19913;-86
2021/10/06 08:58:41;;;;;;;;;;;;;;;;;;4977861;28;19917;-84
2021/10/06 09:01:07;;;;;;;;;;;;;;;;;;4977188;28;19926;-84
2021/10/06 09:03:33;;;;;;;;;;;;;;;;;;4968591;28;19969;-85
2021/10/06 09:05:59;;;;;;;;;;;;;;;;;;4990853;28;19929;-85
2021/10/06 09:08:25;;;;;;;;;;;;;;;;;;4993421;28;19914;-85
2021/10/06 09:10:50;;;;;;;;;;;;;;;;;;4961247;28;19921;-86
2021/10/06 09:13:15;;;;;;;;;;;;;;;;;;4960453;28;19968;-86
2021/10/06 09:15:41;;;;;;;;;;;;;;;;;;4977627;28;19917;-86
2021/10/06 09:18:09;;;;;;;;;;;;;;;;;;4977449;28;20373;-86
2021/10/06 09:20:35;;;;;;;;;;;;;;;;;;4977900;28;19918;-87
2021/10/06 09:23:01;;;;;;;;;;;;;;;;;;4960091;28;19920;-86
2021/10/06 09:25:30;;;;;;;;;;;;;;;;;;4990449;28;19925;-85
2021/10/06 09:27:55;;;;;;;;;;;;;;;;;;4992077;28;20774;-86
2021/10/06 09:30:21;;;;;;;;;;;;;;;;;;4976633;28;20008;-86
2021/10/06 09:32:46;;;;;;;;;;;;;;;;;;4961409;28;20016;-89
2021/10/06 09:35:18;;;;;;;;;;;;;;;;;;4957586;28;20049;-88
2021/10/06 09:37:44;;;;;;;;;;;;;;;;;;4988277;28;19918;-89
2021/10/06 09:40:13;;;;;;;;;;;;;;;;;;4964458;28;19918;-88
2021/10/06 09:42:45;;;;;;;;;;;;;;;;;;4993677;28;19921;-88
2021/10/06 09:45:10;;;;;;;;;;;;;;;;;;5010032;28;20291;-89
2021/10/06 09:47:35;;;;;;;;;;;;;;;;;;4976736;28;19918;-88
2021/10/06 09:50:01;;;;;;;;;;;;;;;;;;4963836;28;19918;-88
2021/10/06 09:52:26;;;;;;;;;;;;;;;;;;4979539;28;20001;-90
2021/10/06 09:54:59;;;;;;;;;;;;;;;;;;4971481;28;19918;-90
2021/10/06 09:57:24;;;;;;;;;;;;;;;;;;4961390;28;20287;-90
2021/10/06 09:59:50;;;;;;;;;;;;;;;;;;5008553;28;20008;-85
2021/10/06 10:02:15;;;;;;;;;;;;;;;;;;4975177;28;20009;-85
2021/10/06 10:04:41;;;;;;;;;;;;;;;;;;4960608;28;19913;-86
2021/10/06 10:07:06;;;;;;;;;;;;;;;;;;4959962;28;19920;-86
2021/10/06 10:09:31;;;;;;;;;;;;;;;;;;4976297;28;19918;-86
2021/10/06 10:11:57;;;;;;;;;;;;;;;;;;4960017;28;19918;-85
2021/10/06 10:14:24;;;;;;;;;;;;;;;;;;4958668;28;19918;-85
2021/10/06 10:16:49;;;;;;;;;;;;;;;;;;4953181;28;19961;-84
2021/10/06 10:19:15;;;;;;;;;;;;;;;;;;4988263;28;19960;-85
2021/10/06 10:21:44;;;;;;;;;;;;;;;;;;4987462;28;19959;-85
2021/10/06 10:24:11;;;;;;;;;;;;;;;;;;4960140;28;19922;-85
2021/10/06 10:26:37;;;;;;;;;;;;;;;;;;4960169;28;19968;-85
2021/10/06 10:29:23;;;;;;;;;;;;;;;;;;4959719;28;19918;-85
2021/10/06 10:32:22;;;;;;;;;;;;;;;;;;4991864;28;19965;-85
2021/10/06 10:34:59;;;;;;;;;;;;;;;;;;4969961;28;19918;-86
2021/10/06 10:37:43;;;;;;;;;;;;;;;;;;4974963;28;19973;-86
2021/10/06 10:40:27;;;;;;;;;;;;;;;;;;4991716;28;19962;-86
2021/10/06 10:42:56;;;;;;;;;;;;;;;;;;4982937;28;19925;-85
2021/10/06 10:45:35;;;;;;;;;;;;;;;;;;4972352;28;20392;-86
2021/10/06 10:48:01;;;;;;;;;;;;;;;;;;4988406;28;20333;-86
2021/10/06 10:50:36;;;;;;;;;;;;;;;;;;5013302;28;20000;-86
2021/10/06 10:53:02;;;;;;;;;;;;;;;;;;4995000;28;19913;-86
2021/10/06 10:55:47;;;;;;;;;;;;;;;;;;4995675;28;20283;-86
2021/10/06 10:58:31;;;;;;;;;;;;;;;;;;4988145;28;19918;-86
2021/10/06 11:00:56;;;;;;;;;;;;;;;;;;4995774;28;19984;-86
2021/10/06 11:03:22;;;;;;;;;;;;;;;;;;4991542;28;20025;-86
2021/10/06 11:05:47;;;;;;;;;;;;;;;;;;4959423;28;20012;-86
2021/10/06 11:08:22;;;;;;;;;;;;;;;;;;4975974;28;20491;-86
2021/10/06 11:10:47;;;;;;;;;;;;;;;;;;4991991;28;20449;-86
2021/10/06 11:13:12;;;;;;;;;;;;;;;;;;4959508;28;19917;-86
2021/10/06 11:15:38;;;;;;;;;;;;;;;;;;4959072;28;20300;-86
2021/10/06 11:18:24;;;;;;;;;;;;;;;;;;4959328;28;19914;-87
2021/10/06 11:20:52;;;;;;;;;;;;;;;;;;4976255;28;19922;-86
2021/10/06 11:23:29;;;;;;;;;;;;;;;;;;4959649;28;19920;-87
2021/10/06 11:25:55;;;;;;;;;;;;;;;;;;5008043;28;19920;-87
2021/10/06 11:28:21;;;;;;;;;;;;;;;;;;4974972;28;19918;-86
2021/10/06 11:30:52;;;;;;;;;;;;;;;;;;4991856;28;20438;-86
2021/10/06 11:33:28;;;;;;;;;;;;;;;;;;4958291;28;20024;-88
2021/10/06 11:36:06;;;;;;;;;;;;;;;;;;4959171;28;19973;-84
2021/10/06 11:38:31;;;;;;;;;;;;;;;;;;4974217;28;19918;-83
2021/10/06 11:40:57;;;;;;;;;;;;;;;;;;4956456;28;19936;-84
2021/10/06 11:43:22;;;;;;;;;;;;;;;;;;4955736;28;20013;-83
2021/10/06 11:45:48;;;;;;;;;;;;;;;;;;4955874;28;20016;-83
2021/10/06 11:48:13;;;;;;;;;;;;;;;;;;4964202;28;20012;-84
2021/10/06 11:50:39;;;;;;;;;;;;;;;;;;4982657;28;19921;-84
2021/10/06 11:53:05;;;;;;;;;;;;;;;;;;4976688;28;19925;-84
2021/10/06 11:55:30;;;;;;;;;;;;;;;;;;4974998;28;19922;-83
2021/10/06 11:57:55;;;;;;;;;;;;;;;;;;4974043;28;19921;-83
2021/10/06 12:00:20;;;;;;;;;;;;;;;;;;4957450;28;19922;-83
2021/10/06 12:02:46;;;;;;;;;;;;;;;;;;4991153;28;19914;-83
2021/10/06 12:05:12;;;;;;;;;;;;;;;;;;4975199;28;20005;-83
2021/10/06 12:07:37;;;;;;;;;;;;;;;;;;4958884;28;20328;-83
2021/10/06 12:10:03;;;;;;;;;;;;;;;;;;4958765;28;19930;-83
2021/10/06 12:12:32;;;;;;;;;;;;;;;;;;4957993;28;19917;-82
2021/10/06 12:14:58;;;;;;;;;;;;;;;;;;4970360;28;20094;-82
2021/10/06 12:17:25;;;;;;;;;;;;;;;;;;4994574;28;19918;-82
2021/10/06 12:19:54;;;;;;;;;;;;;;;;;;4977921;28;19960;-82
2021/10/06 12:22:19;;;;;;;;;;;;;;;;;;4962193;28;19914;-83
2021/10/06 12:24:44;;;;;;;;;;;;;;;;;;4961897;28;19925;-83
2021/10/06 12:27:23;;;;;;;;;;;;;;;;;;4994555;28;19920;-83
2021/10/06 12:29:49;;;;;;;;;;;;;;;;;;4960827;28;19918;-83
2021/10/06 12:32:15;;;;;;;;;;;;;;;;;;4961293;28;20284;-83
2021/10/06 12:34:40;;;;;;;;;;;;;;;;;;4961617;28;20016;-82
2021/10/06 12:37:07;;;;;;;;;;;;;;;;;;4959898;28;20392;-83
2021/10/06 12:39:33;;;;;;;;;;;;;;;;;;4961365;28;19932;-82
2021/10/06 12:42:00;;;;;;;;;;;;;;;;;;4977686;28;20288;-82
2021/10/06 12:44:32;;;;;;;;;;;;;;;;;;4977560;28;20009;-83
2021/10/06 12:46:58;;;;;;;;;;;;;;;;;;4961539;28;20395;-83
2021/10/06 12:49:23;;;;;;;;;;;;;;;;;;4977390;28;19918;-83
2021/10/06 12:51:56;;;;;;;;;;;;;;;;;;4977165;28;20384;-83
2021/10/06 12:54:22;;;;;;;;;;;;;;;;;;4960964;28;19925;-83
2021/10/06 12:57:00;;;;;;;;;;;;;;;;;;4961211;28;20295;-82
2021/10/06 12:59:30;;;;;;;;;;;;;;;;;;4960334;28;19917;-82
2021/10/06 13:01:56;;;;;;;;;;;;;;;;;;4977139;28;19918;-82
2021/10/06 13:04:21;;;;;;;;;;;;;;;;;;4961533;28;19914;-83
2021/10/06 13:06:47;;;;;;;;;;;;;;;;;;4977640;28;19964;-83
2021/10/06 13:09:16;;;;;;;;;;;;;;;;;;4960218;28;20299;-83
2021/10/06 13:11:41;;;;;;;;;;;;;;;;;;4993721;28;19921;-83
2021/10/06 13:14:07;;;;;;;;;;;;;;;;;;4976781;28;19914;-82
2021/10/06 13:16:32;;;;;;;;;;;;;;;;;;4993075;28;19997;-83
2021/10/06 13:18:59;;;;;;;;;;;;;;;;;;4961112;28;20000;-83
2021/10/06 13:21:25;;;;;;;;;;;;;;;;;;4961800;28;19925;-83
2021/10/06 13:23:50;;;;;;;;;;;;;;;;;;4993372;28;19914;-83
2021/10/06 13:26:15;;;;;;;;;;;;;;;;;;4992106;28;19918;-83
2021/10/06 13:28:42;;;;;;;;;;;;;;;;;;4976210;28;19979;-83
2021/10/06 13:31:07;;;;;;;;;;;;;;;;;;4941977;28;19984;-83
2021/10/06 13:33:33;;;;;;;;;;;;;;;;;;4980833;28;20380;-83
2021/10/06 13:35:59;;;;;;;;;;;;;;;;;;4976259;28;19925;-83
2021/10/06 13:38:24;;;;;;;;;;;;;;;;;;4976025;28;19926;-83
2021/10/06 13:40:49;;;;;;;;;;;;;;;;;;4993066;28;19968;-82
2021/10/06 13:43:15;;;;;;;;;;;;;;;;;;4992120;28;19913;-83
2021/10/06 13:45:40;;;;;;;;;;;;;;;;;;4959112;28;19925;-82
2021/10/06 13:48:06;;;;;;;;;;;;;;;;;;4976321;28;19917;-82
2021/10/06 13:50:31;;;;;;;;;;;;;;;;;;4976045;28;19921;-82
2021/10/06 13:52:56;;;;;;;;;;;;;;;;;;4992325;28;19952;-83
2021/10/06 13:55:22;;;;;;;;;;;;;;;;;;4992632;28;19913;-83
2021/10/06 13:57:47;;;;;;;;;;;;;;;;;;4959579;28;19914;-83
2021/10/06 14:00:13;;;;;;;;;;;;;;;;;;4958723;28;19936;-82
2021/10/06 14:02:38;;;;;;;;;;;;;;;;;;4958806;28;19940;-82
2021/10/06 14:05:03;;;;;;;;;;;;;;;;;;4991861;28;19964;-82
2021/10/06 14:07:28;;;;;;;;;;;;;;;;;;4976281;28;19913;-82
2021/10/06 14:09:54;;;;;;;;;;;;;;;;;;4959565;28;20004;-82
2021/10/06 14:12:20;;;;;;;;;;;;;;;;;;4991763;28;19917;-82
2021/10/06 14:14:45;;;;;;;;;;;;;;;;;;4992360;28;19957;-82
2021/10/06 14:17:10;;;;;;;;;;;;;;;;;;4975660;28;20307;-82
2021/10/06 14:19:36;;;;;;;;;;;;;;;;;;4991955;28;19917;-82
2021/10/06 14:22:01;;;;;;;;;;;;;;;;;;4975863;28;20391;-82
2021/10/06 14:24:26;;;;;;;;;;;;;;;;;;4975581;28;19921;-83
2021/10/06 14:26:51;;;;;;;;;;;;;;;;;;4972844;28;19926;-82
2021/10/06 14:29:17;;;;;;;;;;;;;;;;;;4995003;28;19969;-82
2021/10/06 14:31:42;;;;;;;;;;;;;;;;;;4958573;28;20208;-81
2021/10/06 14:34:07;;;;;;;;;;;;;;;;;;4994829;28;19965;-82
2021/10/06 14:36:35;;;;;;;;;;;;;;;;;;4987858;28;19921;-82
2021/10/06 14:39:01;;;;;;;;;;;;;;;;;;4984791;28;20360;-82
2021/10/06 14:41:26;;;;;;;;;;;;;;;;;;4959469;28;19921;-83
2021/10/06 14:43:52;;;;;;;;;;;;;;;;;;4969663;28;19965;-83
2021/10/06 14:46:17;;;;;;;;;;;;;;;;;;4975816;28;20501;-82
2021/10/06 14:48:42;;;;;;;;;;;;;;;;;;4958724;28;19969;-83
2021/10/06 14:51:07;;;;;;;;;;;;;;;;;;4975351;28;20033;-82
2021/10/06 14:53:33;;;;;;;;;;;;;;;;;;4957899;28;20418;-82
2021/10/06 14:55:58;;;;;;;;;;;;;;;;;;4970862;28;19918;-83
2021/10/06 14:58:23;;;;;;;;;;;;;;;;;;4975280;28;19945;-83
2021/10/06 15:00:49;;;;;;;;;;;;;;;;;;4985850;28;19968;-83
2021/10/06 15:03:15;;;;;;;;;;;;;;;;;;4991362;28;20364;-82
2021/10/06 15:05:40;;;;;;;;;;;;;;;;;;4991576;28;19921;-82
2021/10/06 15:08:06;;;;;;;;;;;;;;;;;;4980343;28;19925;-83
2021/10/06 15:10:37;;;;;;;;;;;;;;;;;;4987319;28;19952;-83
2021/10/06 15:13:02;;;;;;;;;;;;;;;;;;4983483;28;19930;-83
2021/10/06 15:15:28;;;;;;;;;;;;;;;;;;4980271;28;19949;-83
2021/10/06 15:17:53;;;;;;;;;;;;;;;;;;4957905;28;19922;-83
2021/10/06 15:20:18;;;;;;;;;;;;;;;;;;4984758;28;19969;-86
2021/10/06 15:22:45;;;;;;;;;;;;;;;;;;5008345;28;19980;-89
2021/10/06 15:25:10;;;;;;;;;;;;;;;;;;4958839;28;19925;-84
2021/10/06 15:27:37;;;;;;;;;;;;;;;;;;4956634;28;20291;-86
2021/10/06 15:30:03;;;;;;;;;;;;;;;;;;4974798;28;19936;-86
2021/10/06 15:32:28;;;;;;;;;;;;;;;;;;4975618;28;19922;-86
2021/10/06 15:34:53;;;;;;;;;;;;;;;;;;4970688;28;19980;-85
2021/10/06 15:37:20;;;;;;;;;;;;;;;;;;4974348;28;19917;-85
2021/10/06 15:39:45;;;;;;;;;;;;;;;;;;4958174;28;19918;-85
2021/10/06 15:42:11;;;;;;;;;;;;;;;;;;4974996;28;19926;-85
2021/10/06 15:44:37;;;;;;;;;;;;;;;;;;4977104;28;19969;-84
2021/10/06 15:47:02;;;;;;;;;;;;;;;;;;4974709;28;19929;-86
2021/10/06 15:49:27;;;;;;;;;;;;;;;;;;4961275;28;19922;-84
2021/10/06 15:51:53;;;;;;;;;;;;;;;;;;4975192;28;19922;-85
2021/10/06 15:54:18;;;;;;;;;;;;;;;;;;4995096;28;20008;-85
2021/10/06 15:56:45;;;;;;;;;;;;;;;;;;4961460;28;19918;-85
2021/10/06 15:59:10;;;;;;;;;;;;;;;;;;4977964;28;19922;-86
2021/10/06 16:01:35;;;;;;;;;;;;;;;;;;4962805;28;19918;-86
2021/10/06 16:04:01;;;;;;;;;;;;;;;;;;4962780;28;20269;-87
2021/10/06 16:06:26;;;;;;;;;;;;;;;;;;4962459;28;20012;-86
2021/10/06 16:08:52;;;;;;;;;;;;;;;;;;4962493;28;20261;-85
2021/10/06 16:11:17;;;;;;;;;;;;;;;;;;4962165;28;19929;-84
2021/10/06 16:13:43;;;;;;;;;;;;;;;;;;4977928;28;19917;-85
2021/10/06 16:16:08;;;;;;;;;;;;;;;;;;4962610;28;19928;-85
2021/10/06 16:18:34;;;;;;;;;;;;;;;;;;4978572;28;19918;-85
2021/10/06 16:20:59;;;;;;;;;;;;;;;;;;4994696;28;19918;-85
2021/10/06 16:23:24;;;;;;;;;;;;;;;;;;4961950;28;20376;-86
2021/10/06 16:25:49;;;;;;;;;;;;;;;;;;4962055;28;19965;-86
2021/10/06 16:28:15;;;;;;;;;;;;;;;;;;4961917;28;20364;-86
2021/10/06 16:30:40;;;;;;;;;;;;;;;;;;4962270;28;20000;-86
2021/10/06 16:33:07;;;;;;;;;;;;;;;;;;4962036;28;20052;-86
2021/10/06 16:35:32;;;;;;;;;;;;;;;;;;4994327;28;19914;-86
2021/10/06 16:37:57;;;;;;;;;;;;;;;;;;4994188;28;19994;-86